createdAt,value
2018-03-01T00:00:34.909Z,1021.92
2018-03-01T00:01:34.889Z,1021.95
2018-03-01T00:02:34.864Z,1021.92
2018-03-01T00:03:34.833Z,1021.88
2018-03-01T00:04:34.814Z,1021.91
2018-03-01T00:05:34.783Z,1021.90
2018-03-01T00:06:34.759Z,1021.94
2018-03-01T00:07:34.734Z,1021.87
2018-03-01T00:08:34.714Z,1021.91
2018-03-01T00:09:34.683Z,1021.90
2018-03-01T00:10:34.658Z,1021.86
2018-03-01T00:11:34.630Z,1021.86
2018-03-01T00:12:34.613Z,1021.74
2018-03-01T00:13:34.585Z,1021.75
2018-03-01T00:14:34.558Z,1021.74
2018-03-01T00:15:34.532Z,1021.73
2018-03-01T00:16:34.504Z,1021.73
2018-03-01T00:17:34.507Z,1021.71
2018-03-01T00:18:34.453Z,1021.69
2018-03-01T00:19:34.432Z,1021.71
2018-03-01T00:20:34.400Z,1021.71
2018-03-01T00:21:34.380Z,1021.69
2018-03-01T00:22:34.351Z,1021.65
2018-03-01T00:23:34.330Z,1021.63
2018-03-01T00:24:34.307Z,1021.60
2018-03-01T00:25:34.273Z,1021.61
2018-03-01T00:26:34.252Z,1021.61
2018-03-01T00:27:34.221Z,1021.57
2018-03-01T00:28:34.202Z,1021.55
2018-03-01T00:29:34.174Z,1021.54
2018-03-01T00:30:34.153Z,1021.51
2018-03-01T00:31:34.123Z,1021.53
2018-03-01T00:32:34.102Z,1021.53
2018-03-01T00:33:34.074Z,1021.55
2018-03-01T00:34:34.124Z,1021.55
2018-03-01T00:35:34.019Z,1021.58
2018-03-01T00:36:34.004Z,1021.58
2018-03-01T00:37:33.977Z,1021.59
2018-03-01T00:38:33.955Z,1021.57
2018-03-01T00:39:33.916Z,1021.59
2018-03-01T00:40:33.898Z,1021.55
2018-03-01T00:41:33.868Z,1021.54
2018-03-01T00:42:33.847Z,1021.50
2018-03-01T00:43:33.815Z,1021.49
2018-03-01T00:44:33.797Z,1021.47
2018-03-01T00:45:33.764Z,1021.49
2018-03-01T00:46:33.743Z,1021.50
2018-03-01T00:47:33.714Z,1021.49
2018-03-01T00:48:33.694Z,1021.46
2018-03-01T00:49:33.666Z,1021.45
2018-03-01T00:50:33.638Z,1021.49
2018-03-01T00:51:33.615Z,1021.49
2018-03-01T00:52:33.588Z,1021.48
2018-03-01T00:53:33.565Z,1021.45
2018-03-01T00:54:33.538Z,1021.49
2018-03-01T00:55:33.512Z,1021.41
2018-03-01T00:56:33.484Z,1021.45
2018-03-01T00:57:33.457Z,1021.38
2018-03-01T00:58:33.432Z,1021.38
2018-03-01T00:59:33.409Z,1021.36
2018-03-01T01:00:33.381Z,1021.38
2018-03-01T01:01:33.357Z,1021.37
2018-03-01T01:02:33.333Z,1021.35
2018-03-01T01:03:33.304Z,1021.32
2018-03-01T01:04:33.281Z,1021.35
2018-03-01T01:05:33.255Z,1021.27
2018-03-01T01:06:33.230Z,1021.25
2018-03-01T01:07:33.202Z,1021.24
2018-03-01T01:08:33.178Z,1021.18
2018-03-01T01:09:33.155Z,1021.21
2018-03-01T01:10:33.128Z,1021.18
2018-03-01T01:11:33.103Z,1021.12
2018-03-01T01:12:33.074Z,1021.08
2018-03-01T01:13:33.051Z,1021.11
2018-03-01T01:14:33.025Z,1021.08
2018-03-01T01:15:32.995Z,1021.04
2018-03-01T01:16:32.971Z,1020.99
2018-03-01T01:17:32.948Z,1021.01
2018-03-01T01:18:32.922Z,1021.00
2018-03-01T01:19:32.894Z,1020.99
2018-03-01T01:20:32.873Z,1021.00
2018-03-01T01:21:32.844Z,1020.95
2018-03-01T01:22:32.820Z,1020.95
2018-03-01T01:23:32.794Z,1020.92
2018-03-01T01:24:32.772Z,1020.91
2018-03-01T01:25:32.745Z,1020.85
2018-03-01T01:26:32.715Z,1020.84
2018-03-01T01:27:32.690Z,1020.82
2018-03-01T01:28:32.666Z,1020.76
2018-03-01T01:29:32.642Z,1020.79
2018-03-01T01:30:32.616Z,1020.72
2018-03-01T01:31:32.588Z,1020.72
2018-03-01T01:32:32.561Z,1020.72
2018-03-01T01:33:32.538Z,1020.72
2018-03-01T01:34:32.509Z,1020.69
2018-03-01T01:35:32.485Z,1020.69
2018-03-01T01:36:32.461Z,1020.64
2018-03-01T01:37:32.432Z,1020.64
2018-03-01T01:38:32.408Z,1020.59
2018-03-01T01:39:32.385Z,1020.55
2018-03-01T01:40:32.356Z,1020.57
2018-03-01T01:41:32.331Z,1020.54
2018-03-01T01:42:32.318Z,1020.55
2018-03-01T01:43:32.281Z,1020.53
2018-03-01T01:44:32.254Z,1020.55
2018-03-01T01:45:32.235Z,1020.51
2018-03-01T01:46:32.202Z,1020.56
2018-03-01T01:47:32.182Z,1020.56
2018-03-01T01:48:32.150Z,1020.52
2018-03-01T01:49:32.126Z,1020.55
2018-03-01T01:50:32.115Z,1020.47
2018-03-01T01:51:32.074Z,1020.54
2018-03-01T01:52:32.052Z,1020.53
2018-03-01T01:53:32.022Z,1020.57
2018-03-01T01:54:32.001Z,1020.59
2018-03-01T01:55:31.971Z,1020.56
2018-03-01T01:56:31.946Z,1020.56
2018-03-01T01:57:31.918Z,1020.62
2018-03-01T01:58:31.894Z,1020.60
2018-03-01T01:59:31.980Z,1020.62
2018-03-01T02:00:31.838Z,1020.62
2018-03-01T02:01:31.815Z,1020.60
2018-03-01T02:02:31.792Z,1020.54
2018-03-01T02:03:31.766Z,1020.53
2018-03-01T02:04:31.838Z,1020.50
2018-03-01T02:05:31.711Z,1020.45
2018-03-01T02:06:31.687Z,1020.50
2018-03-01T02:07:31.661Z,1020.46
2018-03-01T02:08:31.637Z,1020.40
2018-03-01T02:09:31.616Z,1020.42
2018-03-01T02:10:31.583Z,1020.40
2018-03-01T02:11:31.559Z,1020.38
2018-03-01T02:12:31.531Z,1020.37
2018-03-01T02:13:31.511Z,1020.29
2018-03-01T02:14:31.481Z,1020.26
2018-03-01T02:15:31.458Z,1020.25
2018-03-01T02:16:31.432Z,1020.23
2018-03-01T02:17:31.403Z,1020.16
2018-03-01T02:18:31.376Z,1020.11
2018-03-01T02:19:31.350Z,1020.08
2018-03-01T02:20:31.325Z,1019.97
2018-03-01T02:21:31.301Z,1020.06
2018-03-01T02:22:31.276Z,1019.94
2018-03-01T02:23:31.250Z,1019.91
2018-03-01T02:24:31.224Z,1019.91
2018-03-01T02:25:31.196Z,1019.84
2018-03-01T02:26:31.175Z,1019.82
2018-03-01T02:27:31.146Z,1019.82
2018-03-01T02:28:31.122Z,1019.75
2018-03-01T02:29:31.113Z,1019.76
2018-03-01T02:30:31.074Z,1019.74
2018-03-01T02:31:31.044Z,1019.75
2018-03-01T02:32:31.016Z,1019.73
2018-03-01T02:33:30.996Z,1019.69
2018-03-01T02:34:30.970Z,1019.69
2018-03-01T02:35:30.941Z,1019.70
2018-03-01T02:36:30.917Z,1019.70
2018-03-01T02:37:30.891Z,1019.71
2018-03-01T02:38:30.862Z,1019.71
2018-03-01T02:39:30.835Z,1019.69
2018-03-01T02:40:30.816Z,1019.68
2018-03-01T02:41:30.786Z,1019.69
2018-03-01T02:42:30.768Z,1019.69
2018-03-01T02:43:30.733Z,1019.70
2018-03-01T02:44:30.710Z,1019.64
2018-03-01T02:45:30.677Z,1019.60
2018-03-01T02:46:30.652Z,1019.61
2018-03-01T02:47:30.630Z,1019.59
2018-03-01T02:48:30.614Z,1019.58
2018-03-01T02:49:30.575Z,1019.58
2018-03-01T02:50:30.551Z,1019.53
2018-03-01T02:51:30.526Z,1019.57
2018-03-01T02:52:30.506Z,1019.53
2018-03-01T02:53:30.483Z,1019.55
2018-03-01T02:54:30.446Z,1019.52
2018-03-01T02:55:30.422Z,1019.58
2018-03-01T02:56:30.394Z,1019.60
2018-03-01T02:57:30.370Z,1019.59
2018-03-01T02:58:30.376Z,1019.57
2018-03-01T02:59:30.317Z,1019.59
2018-03-01T03:00:30.291Z,1019.58
2018-03-01T03:01:30.269Z,1019.58
2018-03-01T03:02:30.239Z,1019.65
2018-03-01T03:03:30.215Z,1019.65
2018-03-01T03:04:30.184Z,1019.64
2018-03-01T03:05:30.161Z,1019.70
2018-03-01T03:06:30.174Z,1019.67
2018-03-01T03:07:30.109Z,1019.63
2018-03-01T03:08:30.082Z,1019.60
2018-03-01T03:09:30.056Z,1019.60
2018-03-01T03:10:30.035Z,1019.57
2018-03-01T03:11:30.006Z,1019.49
2018-03-01T03:12:29.980Z,1019.46
2018-03-01T03:13:29.964Z,1019.48
2018-03-01T03:14:29.933Z,1019.49
2018-03-01T03:15:29.900Z,1019.51
2018-03-01T03:16:29.875Z,1019.53
2018-03-01T03:17:29.852Z,1019.49
2018-03-01T03:18:29.821Z,1019.46
2018-03-01T03:19:29.797Z,1019.51
2018-03-01T03:20:29.772Z,1019.48
2018-03-01T03:21:29.746Z,1019.46
2018-03-01T03:22:29.725Z,1019.44
2018-03-01T03:23:29.692Z,1019.41
2018-03-01T03:24:29.669Z,1019.43
2018-03-01T03:25:29.645Z,1019.43
2018-03-01T03:26:29.614Z,1019.44
2018-03-01T03:27:29.595Z,1019.47
2018-03-01T03:28:29.564Z,1019.44
2018-03-01T03:29:29.542Z,1019.43
2018-03-01T03:30:29.528Z,1019.41
2018-03-01T03:31:29.496Z,1019.36
2018-03-01T03:32:29.461Z,1019.37
2018-03-01T03:33:29.445Z,1019.33
2018-03-01T03:34:29.407Z,1019.28
2018-03-01T03:35:29.384Z,1019.28
2018-03-01T03:36:29.356Z,1019.28
2018-03-01T03:37:29.384Z,1019.30
2018-03-01T03:38:29.300Z,1019.28
2018-03-01T03:39:29.274Z,1019.25
2018-03-01T03:40:29.249Z,1019.27
2018-03-01T03:41:29.223Z,1019.25
2018-03-01T03:42:29.202Z,1019.28
2018-03-01T03:43:29.168Z,1019.28
2018-03-01T03:44:29.154Z,1019.22
2018-03-01T03:45:29.121Z,1019.23
2018-03-01T03:46:29.095Z,1019.25
2018-03-01T03:47:29.065Z,1019.27
2018-03-01T03:48:29.042Z,1019.29
2018-03-01T03:49:29.019Z,1019.29
2018-03-01T03:50:28.995Z,1019.26
2018-03-01T03:51:28.964Z,1019.20
2018-03-01T03:52:28.936Z,1019.22
2018-03-01T03:53:28.920Z,1019.23
2018-03-01T03:54:28.889Z,1019.17
2018-03-01T03:55:28.862Z,1019.21
2018-03-01T03:56:28.833Z,1019.21
2018-03-01T03:57:28.805Z,1019.20
2018-03-01T03:58:28.782Z,1019.26
2018-03-01T03:59:28.753Z,1019.22
2018-03-01T04:00:28.727Z,1019.22
2018-03-01T04:01:28.702Z,1019.26
2018-03-01T04:02:28.676Z,1019.29
2018-03-01T04:03:28.649Z,1019.31
2018-03-01T04:04:28.622Z,1019.28
2018-03-01T04:05:28.595Z,1019.25
2018-03-01T04:06:28.576Z,1019.22
2018-03-01T04:07:28.543Z,1019.26
2018-03-01T04:08:28.519Z,1019.24
2018-03-01T04:09:28.491Z,1019.30
2018-03-01T04:10:28.466Z,1019.29
2018-03-01T04:11:28.438Z,1019.28
2018-03-01T04:12:28.412Z,1019.31
2018-03-01T04:13:28.386Z,1019.31
2018-03-01T04:14:28.361Z,1019.36
2018-03-01T04:15:28.339Z,1019.32
2018-03-01T04:16:28.314Z,1019.33
2018-03-01T04:17:28.285Z,1019.28
2018-03-01T04:18:28.255Z,1019.27
2018-03-01T04:19:28.232Z,1019.26
2018-03-01T04:20:28.201Z,1019.22
2018-03-01T04:21:28.176Z,1019.20
2018-03-01T04:22:28.150Z,1019.18
2018-03-01T04:23:28.124Z,1019.18
2018-03-01T04:24:28.099Z,1019.15
2018-03-01T04:25:28.074Z,1019.22
2018-03-01T04:26:28.045Z,1019.24
2018-03-01T04:27:28.026Z,1019.27
2018-03-01T04:28:27.994Z,1019.24
2018-03-01T04:29:27.964Z,1019.28
2018-03-01T04:30:27.994Z,1019.30
2018-03-01T04:31:27.913Z,1019.31
2018-03-01T04:32:27.946Z,1019.29
2018-03-01T04:33:27.866Z,1019.31
2018-03-01T04:34:27.844Z,1019.37
2018-03-01T04:35:27.811Z,1019.37
2018-03-01T04:36:27.784Z,1019.36
2018-03-01T04:37:27.755Z,1019.33
2018-03-01T04:38:27.737Z,1019.34
2018-03-01T04:39:27.702Z,1019.35
2018-03-01T04:40:27.829Z,1019.37
2018-03-01T04:41:27.654Z,1019.33
2018-03-01T04:42:27.631Z,1019.35
2018-03-01T04:43:27.599Z,1019.27
2018-03-01T04:44:27.569Z,1019.29
2018-03-01T04:45:27.797Z,1019.28
2018-03-01T04:46:27.524Z,1019.25
2018-03-01T04:47:27.494Z,1019.28
2018-03-01T04:48:27.569Z,1019.25
2018-03-01T04:49:27.445Z,1019.25
2018-03-01T04:50:27.500Z,1019.26
2018-03-01T04:51:27.390Z,1019.29
2018-03-01T04:52:27.523Z,1019.23
2018-03-01T04:53:27.335Z,1019.19
2018-03-01T04:54:27.310Z,1019.23
2018-03-01T04:55:27.287Z,1019.20
2018-03-01T04:56:27.257Z,1019.20
2018-03-01T04:57:27.233Z,1019.18
2018-03-01T04:58:27.206Z,1019.22
2018-03-01T04:59:27.176Z,1019.24
2018-03-01T05:00:27.155Z,1019.22
2018-03-01T05:01:27.129Z,1019.22
2018-03-01T05:02:27.098Z,1019.21
2018-03-01T05:03:27.074Z,1019.19
2018-03-01T05:04:27.055Z,1019.21
2018-03-01T05:05:27.021Z,1019.19
2018-03-01T05:06:26.998Z,1019.18
2018-03-01T05:07:26.967Z,1019.18
2018-03-01T05:08:26.945Z,1019.14
2018-03-01T05:09:26.914Z,1019.11
2018-03-01T05:10:26.890Z,1019.10
2018-03-01T05:11:26.863Z,1019.08
2018-03-01T05:12:26.834Z,1019.15
2018-03-01T05:13:26.810Z,1019.11
2018-03-01T05:14:26.785Z,1019.11
2018-03-01T05:15:26.757Z,1019.11
2018-03-01T05:16:26.736Z,1019.12
2018-03-01T05:17:26.704Z,1019.08
2018-03-01T05:18:26.681Z,1019.08
2018-03-01T05:19:26.652Z,1019.05
2018-03-01T05:20:26.626Z,1018.99
2018-03-01T05:21:26.597Z,1018.96
2018-03-01T05:22:26.574Z,1018.93
2018-03-01T05:23:26.545Z,1018.96
2018-03-01T05:24:26.518Z,1018.93
2018-03-01T05:25:26.495Z,1018.89
2018-03-01T05:26:26.472Z,1018.89
2018-03-01T05:27:26.439Z,1018.90
2018-03-01T05:28:26.416Z,1018.94
2018-03-01T05:29:26.391Z,1018.91
2018-03-01T05:30:26.362Z,1018.92
2018-03-01T05:31:26.336Z,1018.94
2018-03-01T05:32:26.313Z,1018.92
2018-03-01T05:33:26.286Z,1018.92
2018-03-01T05:34:26.260Z,1018.91
2018-03-01T05:35:26.233Z,1018.95
2018-03-01T05:36:26.207Z,1018.91
2018-03-01T05:37:26.178Z,1018.91
2018-03-01T05:38:26.153Z,1018.94
2018-03-01T05:39:26.180Z,1018.89
2018-03-01T05:40:26.109Z,1018.90
2018-03-01T05:41:26.070Z,1018.78
2018-03-01T05:42:26.051Z,1018.83
2018-03-01T05:43:26.024Z,1018.80
2018-03-01T05:44:25.996Z,1018.80
2018-03-01T05:45:25.972Z,1018.77
2018-03-01T05:46:25.947Z,1018.76
2018-03-01T05:47:26.014Z,1018.75
2018-03-01T05:48:25.887Z,1018.74
2018-03-01T05:49:25.866Z,1018.72
2018-03-01T05:50:25.837Z,1018.72
2018-03-01T05:51:25.809Z,1018.71
2018-03-01T05:52:25.786Z,1018.74
2018-03-01T05:53:25.770Z,1018.70
2018-03-01T05:54:25.725Z,1018.69
2018-03-01T05:55:25.698Z,1018.69
2018-03-01T05:56:25.686Z,1018.71
2018-03-01T05:57:25.646Z,1018.69
2018-03-01T05:58:25.622Z,1018.69
2018-03-01T05:59:25.606Z,1018.65
2018-03-01T06:00:25.576Z,1018.61
2018-03-01T06:01:25.542Z,1018.65
2018-03-01T06:02:25.517Z,1018.61
2018-03-01T06:03:25.492Z,1018.59
2018-03-01T06:04:25.463Z,1018.60
2018-03-01T06:05:25.433Z,1018.61
2018-03-01T06:06:25.408Z,1018.57
2018-03-01T06:07:25.382Z,1018.55
2018-03-01T06:08:25.354Z,1018.55
2018-03-01T06:09:25.352Z,1018.59
2018-03-01T06:10:25.307Z,1018.51
2018-03-01T06:11:25.276Z,1018.55
2018-03-01T06:12:25.251Z,1018.51
2018-03-01T06:13:25.225Z,1018.50
2018-03-01T06:14:25.201Z,1018.49
2018-03-01T06:15:25.173Z,1018.46
2018-03-01T06:16:25.150Z,1018.46
2018-03-01T06:17:25.120Z,1018.45
2018-03-01T06:18:25.093Z,1018.44
2018-03-01T06:19:25.063Z,1018.44
2018-03-01T06:20:25.040Z,1018.46
2018-03-01T06:21:25.015Z,1018.37
2018-03-01T06:22:24.987Z,1018.44
2018-03-01T06:23:24.963Z,1018.40
2018-03-01T06:24:24.933Z,1018.38
2018-03-01T06:25:24.914Z,1018.37
2018-03-01T06:26:24.892Z,1018.32
2018-03-01T06:27:24.851Z,1018.34
2018-03-01T06:28:24.829Z,1018.35
2018-03-01T06:29:24.831Z,1018.34
2018-03-01T06:30:24.775Z,1018.31
2018-03-01T06:31:24.757Z,1018.30
2018-03-01T06:32:24.725Z,1018.28
2018-03-01T06:33:24.700Z,1018.26
2018-03-01T06:34:24.673Z,1018.27
2018-03-01T06:35:24.647Z,1018.24
2018-03-01T06:36:24.628Z,1018.24
2018-03-01T06:37:24.588Z,1018.19
2018-03-01T06:38:24.563Z,1018.23
2018-03-01T06:39:24.533Z,1018.19
2018-03-01T06:40:24.510Z,1018.23
2018-03-01T06:41:24.485Z,1018.23
2018-03-01T06:42:24.455Z,1018.21
2018-03-01T06:43:24.428Z,1018.20
2018-03-01T06:44:24.401Z,1018.14
2018-03-01T06:45:24.374Z,1018.11
2018-03-01T06:46:24.351Z,1018.12
2018-03-01T06:47:24.325Z,1018.09
2018-03-01T06:48:24.295Z,1018.10
2018-03-01T06:49:24.271Z,1018.08
2018-03-01T06:50:24.245Z,1018.06
2018-03-01T06:51:24.320Z,1017.99
2018-03-01T06:52:24.193Z,1018.05
2018-03-01T06:53:24.165Z,1018.01
2018-03-01T06:54:24.142Z,1017.97
2018-03-01T06:55:24.113Z,1017.98
2018-03-01T06:56:24.087Z,1017.95
2018-03-01T06:57:24.060Z,1017.91
2018-03-01T06:58:24.035Z,1017.92
2018-03-01T06:59:24.010Z,1017.92
2018-03-01T07:00:23.986Z,1017.90
2018-03-01T07:01:23.954Z,1017.87
2018-03-01T07:02:23.930Z,1017.86
2018-03-01T07:03:23.904Z,1017.85
2018-03-01T07:04:23.875Z,1017.76
2018-03-01T07:05:23.851Z,1017.75
2018-03-01T07:06:23.825Z,1017.70
2018-03-01T07:07:23.796Z,1017.65
2018-03-01T07:08:23.768Z,1017.65
2018-03-01T07:09:23.753Z,1017.57
2018-03-01T07:10:23.718Z,1017.59
2018-03-01T07:11:23.692Z,1017.59
2018-03-01T07:12:23.668Z,1017.56
2018-03-01T07:13:23.645Z,1017.54
2018-03-01T07:14:23.612Z,1017.57
2018-03-01T07:15:23.586Z,1017.52
2018-03-01T07:16:23.562Z,1017.56
2018-03-01T07:17:23.536Z,1017.54
2018-03-01T07:18:23.509Z,1017.55
2018-03-01T07:19:23.490Z,1017.46
2018-03-01T07:20:23.459Z,1017.45
2018-03-01T07:21:23.429Z,1017.49
2018-03-01T07:22:23.404Z,1017.46
2018-03-01T07:23:23.382Z,1017.44
2018-03-01T07:24:23.354Z,1017.44
2018-03-01T07:25:23.325Z,1017.41
2018-03-01T07:26:23.304Z,1017.40
2018-03-01T07:27:23.272Z,1017.35
2018-03-01T07:28:23.248Z,1017.41
2018-03-01T07:29:23.227Z,1017.39
2018-03-01T07:30:23.197Z,1017.35
2018-03-01T07:31:23.171Z,1017.39
2018-03-01T07:32:23.143Z,1017.40
2018-03-01T07:33:23.122Z,1017.34
2018-03-01T07:34:23.094Z,1017.34
2018-03-01T07:35:23.071Z,1017.30
2018-03-01T07:36:23.040Z,1017.27
2018-03-01T07:37:23.013Z,1017.27
2018-03-01T07:38:23.001Z,1017.25
2018-03-01T07:39:22.965Z,1017.30
2018-03-01T07:40:22.940Z,1017.33
2018-03-01T07:41:22.919Z,1017.31
2018-03-01T07:42:22.895Z,1017.34
2018-03-01T07:43:22.860Z,1017.37
2018-03-01T07:44:22.891Z,1017.40
2018-03-01T07:45:22.807Z,1017.40
2018-03-01T07:46:22.786Z,1017.40
2018-03-01T07:47:22.761Z,1017.41
2018-03-01T07:48:22.734Z,1017.39
2018-03-01T07:49:22.706Z,1017.37
2018-03-01T07:50:22.681Z,1017.41
2018-03-01T07:51:22.658Z,1017.44
2018-03-01T07:52:22.631Z,1017.41
2018-03-01T07:53:22.609Z,1017.39
2018-03-01T07:54:22.586Z,1017.47
2018-03-01T07:55:22.553Z,1017.42
2018-03-01T07:56:22.537Z,1017.44
2018-03-01T07:57:22.551Z,1017.43
2018-03-01T07:58:22.482Z,1017.47
2018-03-01T07:59:22.461Z,1017.49
2018-03-01T08:00:22.432Z,1017.47
2018-03-01T08:01:22.404Z,1017.49
2018-03-01T08:02:22.378Z,1017.47
2018-03-01T08:03:22.351Z,1017.45
2018-03-01T08:04:22.383Z,1017.43
2018-03-01T08:05:22.303Z,1017.53
2018-03-01T08:06:22.275Z,1017.50
2018-03-01T08:07:22.255Z,1017.53
2018-03-01T08:08:22.229Z,1017.50
2018-03-01T08:09:22.206Z,1017.53
2018-03-01T08:10:22.181Z,1017.54
2018-03-01T08:11:22.153Z,1017.53
2018-03-01T08:12:22.125Z,1017.52
2018-03-01T08:13:22.099Z,1017.46
2018-03-01T08:14:22.082Z,1017.40
2018-03-01T08:15:22.056Z,1017.44
2018-03-01T08:16:22.025Z,1017.39
2018-03-01T08:17:22.002Z,1017.44
2018-03-01T08:18:21.980Z,1017.46
2018-03-01T08:19:21.949Z,1017.46
2018-03-01T08:20:21.932Z,1017.44
2018-03-01T08:21:21.901Z,1017.52
2018-03-01T08:22:21.878Z,1017.47
2018-03-01T08:23:21.852Z,1017.52
2018-03-01T08:24:21.921Z,1017.46
2018-03-01T08:25:21.831Z,1017.52
2018-03-01T08:26:21.783Z,1017.59
2018-03-01T08:27:21.752Z,1017.54
2018-03-01T08:28:21.780Z,1017.48
2018-03-01T08:29:21.703Z,1017.46
2018-03-01T08:30:21.683Z,1017.47
2018-03-01T08:31:21.684Z,1017.45
2018-03-01T08:32:21.631Z,1017.44
2018-03-01T08:33:21.608Z,1017.47
2018-03-01T08:34:21.636Z,1017.45
2018-03-01T08:35:21.560Z,1017.52
2018-03-01T08:36:21.534Z,1017.82
2018-03-01T08:37:21.510Z,1017.96
2018-03-01T08:38:21.523Z,1017.90
2018-03-01T08:39:21.463Z,1018.08
2018-03-01T08:40:21.476Z,1018.21
2018-03-01T08:41:21.424Z,1018.05
2018-03-01T08:42:21.392Z,1018.17
2018-03-01T08:43:21.368Z,1018.26
2018-03-01T08:44:21.352Z,1018.36
2018-03-01T08:45:21.320Z,1018.39
2018-03-01T08:46:21.296Z,1018.32
2018-03-01T08:47:21.284Z,1018.41
2018-03-01T08:48:21.251Z,1018.37
2018-03-01T08:49:21.231Z,1018.41
2018-03-01T08:50:21.206Z,1018.30
2018-03-01T08:51:21.183Z,1018.14
2018-03-01T08:52:21.162Z,1018.02
2018-03-01T08:53:21.140Z,1018.06
2018-03-01T08:54:21.118Z,1018.11
2018-03-01T08:55:21.101Z,1018.31
2018-03-01T08:56:21.073Z,1018.19
2018-03-01T08:57:21.051Z,1018.25
2018-03-01T08:58:21.029Z,1018.26
2018-03-01T08:59:21.010Z,1017.88
2018-03-01T09:00:20.987Z,1017.75
2018-03-01T09:01:21.066Z,1017.90
2018-03-01T09:02:20.950Z,1018.26
2018-03-01T09:03:20.929Z,1018.25
2018-03-01T09:04:20.910Z,1018.16
2018-03-01T09:05:20.896Z,1018.15
2018-03-01T09:06:20.864Z,1018.14
2018-03-01T09:07:20.844Z,1017.83
2018-03-01T09:08:20.832Z,1017.89
2018-03-01T09:09:20.815Z,1017.87
2018-03-01T09:10:20.789Z,1017.96
2018-03-01T09:11:20.764Z,1018.18
2018-03-01T09:12:20.746Z,1018.24
2018-03-01T09:13:20.726Z,1018.31
2018-03-01T09:14:20.710Z,1017.94
2018-03-01T09:15:20.685Z,1018.06
2018-03-01T09:16:20.674Z,1017.88
2018-03-01T09:17:20.656Z,1017.53
2018-03-01T09:18:20.634Z,1017.63
2018-03-01T09:19:20.613Z,1017.58
2018-03-01T09:20:20.592Z,1017.67
2018-03-01T09:21:20.574Z,1017.76
2018-03-01T09:22:20.559Z,1017.53
2018-03-01T09:23:20.535Z,1017.46
2018-03-01T09:24:20.516Z,1017.74
2018-03-01T09:25:20.498Z,1017.62
2018-03-01T09:26:20.487Z,1017.67
2018-03-01T09:27:20.463Z,1017.82
2018-03-01T09:28:20.450Z,1017.80
2018-03-01T09:29:20.425Z,1017.67
2018-03-01T09:30:20.404Z,1017.73
2018-03-01T09:31:20.394Z,1018.03
2018-03-01T09:32:20.370Z,1018.08
2018-03-01T09:33:20.351Z,1018.15
2018-03-01T09:34:20.334Z,1018.01
2018-03-01T09:35:20.319Z,1018.05
2018-03-01T09:36:20.304Z,1018.16
2018-03-01T09:37:20.283Z,1018.09
2018-03-01T09:38:20.267Z,1018.13
2018-03-01T09:39:20.242Z,1017.98
2018-03-01T09:40:20.235Z,1018.09
2018-03-01T09:41:20.209Z,1018.13
2018-03-01T09:42:20.192Z,1018.12
2018-03-01T09:43:20.181Z,1018.10
2018-03-01T09:44:20.168Z,1017.94
2018-03-01T09:45:20.146Z,1017.79
2018-03-01T09:46:20.133Z,1017.87
2018-03-01T09:47:20.113Z,1017.86
2018-03-01T09:48:20.096Z,1017.73
2018-03-01T09:49:20.086Z,1017.92
2018-03-01T09:50:20.069Z,1017.84
2018-03-01T09:51:20.052Z,1017.88
2018-03-01T09:52:20.042Z,1017.93
2018-03-01T09:53:20.026Z,1017.98
2018-03-01T09:54:20.013Z,1018.15
2018-03-01T09:55:19.997Z,1018.14
2018-03-01T09:56:20.077Z,1018.08
2018-03-01T09:57:19.966Z,1018.10
2018-03-01T09:58:19.965Z,1018.14
2018-03-01T09:59:19.942Z,1018.08
2018-03-01T10:00:19.929Z,1018.10
2018-03-01T10:01:19.913Z,1018.26
2018-03-01T10:02:19.919Z,1018.25
2018-03-01T10:03:19.891Z,1018.30
2018-03-01T10:04:19.934Z,1018.30
2018-03-01T10:05:19.866Z,1018.21
2018-03-01T10:06:19.875Z,1018.21
2018-03-01T10:07:19.848Z,1018.15
2018-03-01T10:08:19.871Z,1018.15
2018-03-01T10:09:19.826Z,1018.15
2018-03-01T10:10:19.817Z,1018.12
2018-03-01T10:11:19.803Z,1018.13
2018-03-01T10:12:19.795Z,1018.09
2018-03-01T10:13:19.788Z,1018.03
2018-03-01T10:14:19.831Z,1017.99
2018-03-01T10:15:19.771Z,1018.04
2018-03-01T10:16:19.766Z,1017.96
2018-03-01T10:17:19.761Z,1017.97
2018-03-01T10:18:19.746Z,1017.98
2018-03-01T10:19:19.737Z,1017.99
2018-03-01T10:20:19.734Z,1017.81
2018-03-01T10:21:19.721Z,1017.88
2018-03-01T10:22:19.718Z,1017.73
2018-03-01T10:23:19.711Z,1017.67
2018-03-01T10:24:19.706Z,1017.68
2018-03-01T10:25:19.706Z,1017.63
2018-03-01T10:26:19.692Z,1017.62
2018-03-01T10:27:19.684Z,1017.69
2018-03-01T10:28:19.683Z,1017.62
2018-03-01T10:29:19.676Z,1017.69
2018-03-01T10:30:19.668Z,1017.65
2018-03-01T10:31:19.670Z,1017.74
2018-03-01T10:32:19.656Z,1017.70
2018-03-01T10:33:19.657Z,1017.69
2018-03-01T10:34:19.649Z,1017.66
2018-03-01T10:35:19.641Z,1017.58
2018-03-01T10:36:19.635Z,1017.65
2018-03-01T10:37:19.635Z,1017.61
2018-03-01T10:38:19.625Z,1017.61
2018-03-01T10:39:19.620Z,1017.58
2018-03-01T10:40:19.623Z,1017.54
2018-03-01T10:41:19.671Z,1017.57
2018-03-01T10:42:19.610Z,1017.56
2018-03-01T10:43:19.605Z,1017.51
2018-03-01T10:44:19.598Z,1017.51
2018-03-01T10:45:19.601Z,1017.45
2018-03-01T10:46:19.591Z,1017.45
2018-03-01T10:47:19.596Z,1017.42
2018-03-01T10:48:19.584Z,1017.39
2018-03-01T10:49:19.584Z,1017.47
2018-03-01T10:50:19.579Z,1017.41
2018-03-01T10:51:19.625Z,1017.43
2018-03-01T10:52:19.571Z,1017.44
2018-03-01T10:53:19.580Z,1017.39
2018-03-01T10:54:19.566Z,1017.29
2018-03-01T10:55:19.564Z,1017.28
2018-03-01T10:56:19.562Z,1017.22
2018-03-01T10:57:19.566Z,1017.23
2018-03-01T10:58:19.555Z,1017.20
2018-03-01T10:59:19.651Z,1017.14
2018-03-01T11:00:19.554Z,1017.15
2018-03-01T11:01:19.551Z,1017.13
2018-03-01T11:02:19.546Z,1017.11
2018-03-01T11:03:19.547Z,1017.11
2018-03-01T11:04:19.543Z,1017.09
2018-03-01T11:05:19.542Z,1017.07
2018-03-01T11:06:19.538Z,1017.01
2018-03-01T11:07:19.535Z,1016.97
2018-03-01T11:08:19.536Z,1016.98
2018-03-01T11:09:19.540Z,1016.95
2018-03-01T11:10:19.589Z,1016.90
2018-03-01T11:11:19.532Z,1016.90
2018-03-01T11:12:19.600Z,1016.89
2018-03-01T11:13:19.527Z,1016.89
2018-03-01T11:14:19.616Z,1016.86
2018-03-01T11:15:19.526Z,1016.87
2018-03-01T11:16:19.529Z,1016.87
2018-03-01T11:17:19.529Z,1016.88
2018-03-01T11:18:19.608Z,1016.94
2018-03-01T11:19:19.518Z,1016.89
2018-03-01T11:20:19.536Z,1016.93
2018-03-01T11:21:19.518Z,1017.00
2018-03-01T11:22:19.521Z,1016.93
2018-03-01T11:23:19.533Z,1016.95
2018-03-01T11:24:19.512Z,1016.91
2018-03-01T11:25:19.510Z,1016.92
2018-03-01T11:26:19.508Z,1016.90
2018-03-01T11:27:19.511Z,1016.83
2018-03-01T11:28:19.518Z,1016.87
2018-03-01T11:29:19.508Z,1016.90
2018-03-01T11:30:19.516Z,1016.80
2018-03-01T11:31:19.506Z,1016.81
2018-03-01T11:32:19.509Z,1016.74
2018-03-01T11:33:19.511Z,1016.75
2018-03-01T11:34:19.506Z,1016.67
2018-03-01T11:35:19.518Z,1016.60
2018-03-01T11:36:19.507Z,1016.62
2018-03-01T11:37:19.505Z,1016.59
2018-03-01T11:38:19.509Z,1016.51
2018-03-01T11:39:19.570Z,1016.45
2018-03-01T11:40:19.508Z,1016.40
2018-03-01T11:41:19.514Z,1016.40
2018-03-01T11:42:19.505Z,1016.36
2018-03-01T11:43:19.561Z,1016.31
2018-03-01T11:44:19.500Z,1016.35
2018-03-01T11:45:19.510Z,1016.29
2018-03-01T11:46:19.500Z,1016.26
2018-03-01T11:47:19.571Z,1016.24
2018-03-01T11:48:19.500Z,1016.24
2018-03-01T11:49:19.504Z,1016.16
2018-03-01T11:50:19.502Z,1016.13
2018-03-01T11:51:19.503Z,1016.12
2018-03-01T11:52:19.505Z,1016.07
2018-03-01T11:53:19.495Z,1016.04
2018-03-01T11:54:19.496Z,1016.08
2018-03-01T11:55:19.499Z,1016.07
2018-03-01T11:56:19.496Z,1016.06
2018-03-01T11:57:19.506Z,1016.03
2018-03-01T11:58:19.493Z,1015.99
2018-03-01T11:59:19.491Z,1015.93
2018-03-01T12:00:19.491Z,1015.94
2018-03-01T12:01:19.491Z,1015.88
2018-03-01T12:02:19.491Z,1015.84
2018-03-01T12:03:19.488Z,1015.78
2018-03-01T12:04:19.489Z,1015.72
2018-03-01T12:05:19.488Z,1015.69